Gr8 Escape — CFN5988 — position and weather

sailwx.info

Track history (hours):
 
Tides and Currents Weather Stations Pressure Air Temp Water Temp Dewpoint Dewpoint Depression Visibility Wind Speed Wind Dir Waves Ship Positions

Gr8 Escape

Last reported at 2017-Oct-05 21:22 UTC. Time now 2017-Oct-17 15:12 UTC.
Position N 49°18' W 123°08'.
Warning: this ship's position is 11 days out of date.

Length 13 m.

Type: Sailing vessel. MMSI: 316020948.

Date/timePositionNaut miles runAvg speedWind from/ knotsBaromVisibWave heightAir tempDewpointWater temp
2017-Oct-05 21:22N 49°18' W 123°08'1 2.8
2017-Oct-05 21:00N 49°19' W 123°08'1 2.9
2017-Oct-05 20:30N 49°19' W 123°10'1 2.1
2017-Oct-05 20:00N 49°20' W 123°12'3 6.0
2017-Oct-05 19:30N 49°20' W 123°16'3 6.0
2017-Oct-05 19:00N 49°22' W 123°19'1 1.7
2017-Oct-05 18:27N 49°23' W 123°20'0 0.0
2017-Oct-05 17:51N 49°23' W 123°20'0 0.0
2017-Oct-05 17:27N 49°23' W 123°20'0 0.0
2017-Oct-05 16:57N 49°23' W 123°20'0 0.0
2017-Oct-05 15:30N 49°23' W 123°20'0 0.0
2017-Oct-05 14:53N 49°23' W 123°20'0 0.0
2017-Oct-05 14:20N 49°23' W 123°20'0 0.0
2017-Oct-05 13:56N 49°23' W 123°20'0 0.0
2017-Oct-05 13:29N 49°23' W 123°20'0 0.0
2017-Oct-05 12:48N 49°23' W 123°20'0 0.0
2017-Oct-05 12:30N 49°23' W 123°20'0 0.0
2017-Oct-05 12:00N 49°23' W 123°20'0 0.0
2017-Oct-05 11:26N 49°23' W 123°20'0 0.0
2017-Oct-05 10:59N 49°23' W 123°20'0 0.0
2017-Oct-05 10:26N 49°23' W 123°20'0 0.0
2017-Oct-05 09:56N 49°23' W 123°20'0 0.0
2017-Oct-05 09:26N 49°23' W 123°20'0 0.0
2017-Oct-05 08:44N 49°23' W 123°20'0 0.0
2017-Oct-05 08:26N 49°23' W 123°20'0 0.0
2017-Oct-05 07:53N 49°23' W 123°20'0 0.0
2017-Oct-05 07:29N 49°23' W 123°20'0 0.0
2017-Oct-05 06:59N 49°23' W 123°20'0 0.0
2017-Oct-05 06:26N 49°23' W 123°20'0 0.0
2017-Oct-05 06:00N 49°23' W 123°20'0 0.0
2017-Oct-05 05:24N 49°23' W 123°20'0 0.0
2017-Oct-05 04:57N 49°23' W 123°20'0 0.0
2017-Oct-05 04:27N 49°23' W 123°20'0 0.0
2017-Oct-05 03:55N 49°23' W 123°20'0 0.0
2017-Oct-05 03:28N 49°23' W 123°20'0 0.0
2017-Oct-05 02:55N 49°23' W 123°20'0 0.0
2017-Oct-05 02:25N 49°23' W 123°20'0 0.0
2017-Oct-05 01:52N 49°23' W 123°20'0 0.0
2017-Oct-05 01:28N 49°23' W 123°20'0 0.0
2017-Oct-05 00:57N 49°23' W 123°20'0 0.0
2017-Oct-05 00:27N 49°23' W 123°20'0 0.0
2017-Oct-04 23:33N 49°23' W 123°20'0 0.0
2017-Oct-04 23:30N 49°23' W 123°20'0 0.0
2017-Oct-04 23:00N 49°23' W 123°20'0 0.0
2017-Oct-04 22:27N 49°23' W 123°20'0 0.0
2017-Oct-04 21:57N 49°23' W 123°20'0 0.0
2017-Oct-04 21:30N 49°23' W 123°20'1 3.0
2017-Oct-04 21:00N 49°22' W 123°18'3 5.0
2017-Oct-04 20:30N 49°20' W 123°16'3 6.0
2017-Oct-04 19:57N 49°20' W 123°11'1 2.2
2017-Oct-04 19:28N 49°19' W 123°09'1 3.0
2017-Oct-04 18:59N 49°18' W 123°08'  
Track history (hours):
 
Tides and Currents Weather Stations Pressure Air Temp Water Temp Dewpoint Dewpoint Depression Visibility Wind Speed Wind Dir Waves Ship Positions

Gr8 Escape

Last reported at 2017-Oct-05 21:22 UTC. Time now 2017-Oct-17 15:12 UTC.
Position N 49°18' W 123°08'.
Warning: this ship's position is 11 days out of date.

Length 13 m.

Type: Sailing vessel. MMSI: 316020948.

Date/timePositionNaut miles runAvg speedWind from/ knotsBaromVisibWave heightAir tempDewpointWater temp
2017-Oct-05 21:22N 49°18' W 123°08'1 2.8
2017-Oct-05 21:00N 49°19' W 123°08'1 2.9
2017-Oct-05 20:30N 49°19' W 123°10'1 2.1
2017-Oct-05 20:00N 49°20' W 123°12'3 6.0
2017-Oct-05 19:30N 49°20' W 123°16'3 6.0
2017-Oct-05 19:00N 49°22' W 123°19'1 1.7
2017-Oct-05 18:27N 49°23' W 123°20'0 0.0
2017-Oct-05 17:51N 49°23' W 123°20'0 0.0
2017-Oct-05 17:27N 49°23' W 123°20'0 0.0
2017-Oct-05 16:57N 49°23' W 123°20'0 0.0
2017-Oct-05 15:30N 49°23' W 123°20'0 0.0
2017-Oct-05 14:53N 49°23' W 123°20'0 0.0
2017-Oct-05 14:20N 49°23' W 123°20'0 0.0
2017-Oct-05 13:56N 49°23' W 123°20'0 0.0
2017-Oct-05 13:29N 49°23' W 123°20'0 0.0
2017-Oct-05 12:48N 49°23' W 123°20'0 0.0
2017-Oct-05 12:30N 49°23' W 123°20'0 0.0
2017-Oct-05 12:00N 49°23' W 123°20'0 0.0
2017-Oct-05 11:26N 49°23' W 123°20'0 0.0
2017-Oct-05 10:59N 49°23' W 123°20'0 0.0
2017-Oct-05 10:26N 49°23' W 123°20'0 0.0
2017-Oct-05 09:56N 49°23' W 123°20'0 0.0
2017-Oct-05 09:26N 49°23' W 123°20'0 0.0
2017-Oct-05 08:44N 49°23' W 123°20'0 0.0
2017-Oct-05 08:26N 49°23' W 123°20'0 0.0
2017-Oct-05 07:53N 49°23' W 123°20'0 0.0
2017-Oct-05 07:29N 49°23' W 123°20'0 0.0
2017-Oct-05 06:59N 49°23' W 123°20'0 0.0
2017-Oct-05 06:26N 49°23' W 123°20'0 0.0
2017-Oct-05 06:00N 49°23' W 123°20'0 0.0
2017-Oct-05 05:24N 49°23' W 123°20'0 0.0
2017-Oct-05 04:57N 49°23' W 123°20'0 0.0
2017-Oct-05 04:27N 49°23' W 123°20'0 0.0
2017-Oct-05 03:55N 49°23' W 123°20'0 0.0
2017-Oct-05 03:28N 49°23' W 123°20'0 0.0
2017-Oct-05 02:55N 49°23' W 123°20'0 0.0
2017-Oct-05 02:25N 49°23' W 123°20'0 0.0
2017-Oct-05 01:52N 49°23' W 123°20'0 0.0
2017-Oct-05 01:28N 49°23' W 123°20'0 0.0
2017-Oct-05 00:57N 49°23' W 123°20'0 0.0
2017-Oct-05 00:27N 49°23' W 123°20'0 0.0
2017-Oct-04 23:33N 49°23' W 123°20'0 0.0
2017-Oct-04 23:30N 49°23' W 123°20'0 0.0
2017-Oct-04 23:00N 49°23' W 123°20'0 0.0
2017-Oct-04 22:27N 49°23' W 123°20'0 0.0
2017-Oct-04 21:57N 49°23' W 123°20'0 0.0
2017-Oct-04 21:30N 49°23' W 123°20'1 3.0
2017-Oct-04 21:00N 49°22' W 123°18'3 5.0
2017-Oct-04 20:30N 49°20' W 123°16'3 6.0
2017-Oct-04 19:57N 49°20' W 123°11'1 2.2
2017-Oct-04 19:28N 49°19' W 123°09'1 3.0
2017-Oct-04 18:59N 49°18' W 123°08'  

Dump ship's entire track history